Time;durP1;ratioP1;P1;durP2;ratioP2;P2;SDS_P1;SDS_P2;PMS_P1;PMS_P2;Temp;Humidity;BMP_temperature;BMP_pressure;BME280_temperature;BME280_humidity;BME280_pressure;Samples;Min_cycle;Max_cycle;Signal;HPM_P1;HPM_P2
2021/06/20 00:00:46;;;;;;;;;0.00;0.00;;;;;20.70;72.75;100588.19;5036747;28;47131;-90
2021/06/20 00:03:11;;;;;;;;;0.00;0.00;;;;;20.33;72.47;100528.69;5060169;28;45573;-92
2021/06/20 00:05:49;;;;;;;;;0.00;0.00;;;;;20.64;72.70;100581.34;5058608;28;45670;-89
2021/06/20 00:08:14;;;;;;;;;0.00;0.00;;;;;20.60;73.45;100579.72;5061515;28;45435;-88
2021/06/20 00:10:40;;;;;;;;;0.00;0.00;;;;;20.57;72.75;100576.31;5069470;28;45420;-90
2021/06/20 00:13:06;;;;;;;;;0.00;0.00;;;;;20.56;72.25;100583.41;5058406;28;45612;-91
2021/06/20 00:15:34;;;;;;;;;0.00;0.00;;;;;20.24;72.40;100556.31;5042959;28;45393;-91
2021/06/20 00:18:00;;;;;;;;;0.00;0.00;;;;;20.14;72.92;100532.00;5043142;28;45736;-91
2021/06/20 00:20:29;;;;;;;;;0.00;0.00;;;;;20.41;72.29;100574.25;5057910;28;46099;-90
2021/06/20 00:22:54;;;;;;;;;0.00;0.00;;;;;20.44;72.18;100579.44;5062758;28;45289;-89
2021/06/20 00:25:20;;;;;;;;;2.00;0.00;;;;;20.47;72.52;100583.72;5043909;28;45655;-89
2021/06/20 00:27:45;;;;;;;;;0.00;0.00;;;;;20.39;71.80;100586.63;5058977;28;45486;-89
2021/06/20 00:30:14;;;;;;;;;0.00;0.00;;;;;19.95;71.50;100532.63;5052481;28;45287;-90
2021/06/20 00:32:40;;;;;;;;;0.00;0.00;;;;;20.23;70.90;100588.94;5058981;28;45620;-90
2021/06/20 00:35:06;;;;;;;;;0.00;0.00;;;;;19.76;71.41;100511.25;5059365;28;45403;-90
2021/06/20 00:37:37;;;;;;;;;0.00;0.00;;;;;20.22;70.62;100571.38;5040445;28;45477;-91
2021/06/20 00:40:04;;;;;;;;;0.00;0.00;;;;;20.16;70.47;100580.38;5056493;28;45335;-91
2021/06/20 00:42:30;;;;;;;;;0.00;0.00;;;;;20.11;70.51;100572.63;5056385;28;45527;-91
2021/06/20 00:44:55;;;;;;;;;0.00;0.00;;;;;20.07;70.84;100575.41;5058851;28;45411;-91
2021/06/20 00:47:21;;;;;;;;;0.00;0.00;;;;;19.98;70.80;100564.22;5059814;28;45327;-89
2021/06/20 00:49:46;;;;;;;;;0.00;0.00;;;;;19.78;70.82;100537.59;5061509;28;45878;-91
2021/06/20 00:52:13;;;;;;;;;0.25;0.00;;;;;20.05;71.08;100582.50;5043670;28;45521;-92
2021/06/20 00:54:46;;;;;;;;;0.00;0.00;;;;;19.82;70.92;100558.56;5060801;28;45887;-91
2021/06/20 00:57:21;;;;;;;;;0.00;0.00;;;;;19.94;70.71;100582.84;5060692;28;45413;-90
2021/06/20 00:59:51;;;;;;;;;0.00;0.00;;;;;19.94;70.76;100583.69;5064231;28;45644;-90
2021/06/20 01:02:18;;;;;;;;;0.00;0.00;;;;;19.96;71.03;100587.16;5066074;28;45265;-89
2021/06/20 01:04:47;;;;;;;;;0.00;0.00;;;;;19.95;70.88;100581.94;5062306;28;45443;-89
2021/06/20 01:07:14;;;;;;;;;0.00;0.00;;;;;19.52;70.63;100524.34;5044183;28;45525;-90
2021/06/20 01:09:39;;;;;;;;;0.00;0.00;;;;;19.71;70.88;100558.94;5047481;28;47314;-92
2021/06/20 01:12:05;;;;;;;;;0.00;0.00;;;;;19.72;70.33;100558.00;5054785;28;45402;-90
2021/06/20 01:14:32;;;;;;;;;0.00;0.00;;;;;19.56;69.81;100538.28;5059844;28;45323;-91
2021/06/20 01:16:58;;;;;;;;;0.00;0.00;;;;;19.82;69.41;100579.69;5059871;28;45307;-91
2021/06/20 01:19:23;;;;;;;;;0.00;0.00;;;;;19.59;69.65;100539.06;5054566;28;45555;-92
2021/06/20 01:21:49;;;;;;;;;0.00;0.00;;;;;19.49;68.77;100535.88;5052287;28;45913;-90
2021/06/20 01:24:15;;;;;;;;;0.00;0.00;;;;;19.63;68.75;100567.09;5057178;28;45269;-85
2021/06/20 01:26:40;;;;;;;;;0.00;0.00;;;;;19.60;68.38;100579.53;5056359;28;45573;-91
2021/06/20 01:29:09;;;;;;;;;0.00;0.00;;;;;19.42;68.29;100539.59;5057721;28;46353;-90
2021/06/20 01:31:36;;;;;;;;;2.00;1.00;;;;;19.59;68.46;100573.38;5057339;28;45411;-90
2021/06/20 01:34:03;;;;;;;;;1.50;0.00;;;;;19.50;68.35;100560.47;5063434;28;45546;-90
2021/06/20 01:36:30;;;;;;;;;0.00;0.00;;;;;19.21;68.39;100528.78;5060951;28;45380;-91
2021/06/20 01:38:56;;;;;;;;;0.00;0.00;;;;;19.58;68.05;100581.34;5064279;28;46402;-89
2021/06/20 01:41:22;;;;;;;;;0.00;0.00;;;;;19.21;67.43;100527.94;5058996;28;45518;-90
2021/06/20 01:43:47;;;;;;;;;0.00;0.00;;;;;19.46;67.96;100586.13;5059984;28;45363;-91
2021/06/20 01:46:13;;;;;;;;;1.00;0.00;;;;;18.96;67.98;100512.84;5041503;28;45742;-91
2021/06/20 01:48:38;;;;;;;;;0.00;0.00;;;;;19.34;67.85;100571.53;5059192;28;45363;-90
2021/06/20 01:51:08;;;;;;;;;0.00;0.00;;;;;19.37;67.76;100576.72;5054986;28;45575;-93
2021/06/20 01:53:33;;;;;;;;;0.00;0.00;;;;;19.40;67.44;100565.19;5038505;28;45636;-88
2021/06/20 01:55:59;;;;;;;;;0.00;0.00;;;;;19.39;67.67;100570.50;5060175;28;45367;-92
2021/06/20 01:58:24;;;;;;;;;0.00;0.00;;;;;19.04;67.49;100510.81;5056674;28;45520;-90
2021/06/20 02:00:51;;;;;;;;;0.00;0.00;;;;;19.12;67.57;100526.47;5040901;28;45977;-92
2021/06/20 02:03:27;;;;;;;;;0.00;0.00;;;;;18.99;67.47;100520.66;5053910;28;45717;-90
2021/06/20 02:05:56;;;;;;;;;0.00;0.00;;;;;18.98;67.71;100517.16;5068308;28;45871;-92
2021/06/20 02:08:22;;;;;;;;;0.00;0.00;;;;;19.34;67.53;100571.53;5056610;28;45483;-92
2021/06/20 02:10:53;;;;;;;;;0.50;0.50;;;;;19.37;67.76;100570.56;5057578;28;45391;-93
2021/06/20 02:13:23;;;;;;;;;0.00;0.00;;;;;18.90;67.56;100494.56;5039826;28;45684;-93
2021/06/20 02:15:49;;;;;;;;;0.00;0.00;;;;;19.16;67.44;100550.94;5041516;28;45541;-93
2021/06/20 02:18:14;;;;;;;;;0.00;0.00;;;;;19.21;67.74;100565.72;5034472;28;48786;-92
2021/06/20 02:20:40;;;;;;;;;0.00;0.00;;;;;18.81;67.92;100493.91;5055701;28;45541;-92
2021/06/20 02:23:06;;;;;;;;;0.00;0.00;;;;;19.18;67.90;100565.84;5058387;28;45459;-91
2021/06/20 02:25:31;;;;;;;;;0.00;0.00;;;;;19.16;68.05;100562.38;5058500;28;45403;-92
2021/06/20 02:27:57;;;;;;;;;0.00;0.00;;;;;18.69;67.94;100492.53;5056531;28;45603;-89
2021/06/20 02:30:23;;;;;;;;;0.00;0.00;;;;;19.08;67.99;100559.97;5056469;28;45478;-92
2021/06/20 02:32:52;;;;;;;;;0.00;0.00;;;;;19.18;67.81;100573.75;5059853;28;45435;-92
2021/06/20 02:35:19;;;;;;;;;0.00;0.00;;;;;19.12;68.06;100568.66;5038189;28;45573;-92
2021/06/20 02:37:47;;;;;;;;;0.00;0.00;;;;;19.14;67.75;100576.53;5053846;28;45399;-89
2021/06/20 02:40:14;;;;;;;;;0.00;0.00;;;;;19.09;68.12;100579.31;5056752;28;45369;-93
2021/06/20 02:42:40;;;;;;;;;0.00;0.00;;;;;19.05;67.61;100578.47;5056625;28;45454;-92
2021/06/20 02:45:08;;;;;;;;;0.00;0.00;;;;;18.63;67.75;100521.69;5054305;28;45385;-91
2021/06/20 02:47:33;;;;;;;;;0.00;0.00;;;;;18.94;68.04;100592.00;5055020;28;45293;-92
2021/06/20 02:49:58;;;;;;;;;0.00;0.00;;;;;18.89;68.27;100591.25;5058827;28;45339;-92
2021/06/20 02:52:24;;;;;;;;;1.00;0.00;;;;;18.53;68.29;100531.63;5040535;28;50120;-91
2021/06/20 02:54:49;;;;;;;;;0.00;0.00;;;;;18.73;67.88;100575.88;5061635;28;45468;-92
2021/06/20 02:57:26;;;;;;;;;0.00;0.00;;;;;18.82;67.78;100602.91;5052067;28;45727;-91
2021/06/20 02:59:52;;;;;;;;;0.00;0.00;;;;;18.79;68.30;100579.25;5055447;28;45402;-92
2021/06/20 03:02:17;;;;;;;;;0.00;0.00;;;;;18.54;67.70;100551.81;5057748;28;45284;-93
2021/06/20 03:04:44;;;;;;;;;0.00;0.00;;;;;18.44;67.86;100516.09;5050000;28;45339;-92
2021/06/20 03:07:10;;;;;;;;;0.00;0.00;;;;;18.71;67.62;100567.16;5053561;28;45729;-92
2021/06/20 03:09:37;;;;;;;;;0.00;0.00;;;;;18.83;67.63;100599.34;5056113;28;45941;-91
2021/06/20 03:12:04;;;;;;;;;0.00;0.00;;;;;18.28;67.55;100505.09;5036878;28;45184;-93
2021/06/20 03:14:29;;;;;;;;;1.00;0.00;;;;;18.70;67.73;100567.19;5058154;28;45418;-93
2021/06/20 03:16:56;;;;;;;;;0.00;0.00;;;;;18.91;67.54;100597.38;5058885;28;45444;-92
2021/06/20 03:19:23;;;;;;;;;0.00;0.00;;;;;18.87;67.70;100599.22;5055813;28;45900;-92
2021/06/20 03:21:49;;;;;;;;;0.00;0.00;;;;;18.80;67.87;100610.00;5068670;28;45325;-92
2021/06/20 03:24:15;;;;;;;;;0.00;0.00;;;;;18.74;67.70;100606.59;5048601;28;45343;-92
2021/06/20 03:26:40;;;;;;;;;0.00;0.00;;;;;18.50;67.72;100571.25;5055391;28;48083;-92
2021/06/20 03:29:06;;;;;;;;;0.00;0.00;;;;;18.70;68.01;100594.44;5057719;28;45210;-92
2021/06/20 03:31:31;;;;;;;;;0.00;0.00;;;;;18.41;67.72;100543.34;5040939;28;45497;-92
2021/06/20 03:33:58;;;;;;;;;0.00;0.00;;;;;18.61;67.34;100570.94;5040642;28;45313;-92
2021/06/20 03:36:28;;;;;;;;;0.00;0.00;;;;;18.66;67.61;100569.06;5061880;28;51554;-91
2021/06/20 03:38:54;;;;;;;;;2.00;0.00;;;;;18.61;67.33;100570.94;5054056;28;45352;-92
2021/06/20 03:41:19;;;;;;;;;0.00;0.00;;;;;18.60;67.42;100579.78;5042819;28;45269;-92
2021/06/20 03:43:45;;;;;;;;;0.00;0.00;;;;;18.49;67.64;100578.28;5065290;28;45289;-89
2021/06/20 03:46:10;;;;;;;;;0.00;0.00;;;;;18.30;67.52;100545.44;5071860;28;45166;-92
2021/06/20 03:48:37;;;;;;;;;0.00;0.00;;;;;18.58;67.33;100578.94;5034997;28;45307;-91
2021/06/20 03:51:03;;;;;;;;;0.00;0.00;;;;;18.72;67.14;100589.97;5042112;28;45337;-92
2021/06/20 03:53:28;;;;;;;;;0.00;0.00;;;;;18.53;67.15;100572.94;5028214;28;45348;-91
2021/06/20 03:55:56;;;;;;;;;0.00;0.00;;;;;18.56;67.09;100560.53;5043846;28;47003;-92
2021/06/20 03:58:21;;;;;;;;;0.00;0.00;;;;;18.28;66.82;100510.38;5025317;28;45518;-92
2021/06/20 04:00:46;;;;;;;;;0.00;0.00;;;;;18.65;66.82;100572.59;5065805;28;44873;-91
2021/06/20 04:03:12;;;;;;;;;0.00;0.00;;;;;18.60;66.78;100562.19;5057716;28;45511;-92
2021/06/20 04:05:37;;;;;;;;;0.00;0.00;;;;;18.71;66.68;100569.78;5045845;28;45636;-90
2021/06/20 04:08:03;;;;;;;;;0.00;0.00;;;;;18.94;66.98;100606.97;5061465;28;45310;-91
2021/06/20 04:10:28;;;;;;;;;0.00;0.00;;;;;18.71;66.61;100555.72;5051006;28;45315;-91
2021/06/20 04:12:54;;;;;;;;;0.00;0.00;;;;;18.80;66.49;100552.84;5061228;28;45474;-92
2021/06/20 04:15:21;;;;;;;;;0.00;0.00;;;;;19.02;66.34;100578.56;5056783;28;45549;-92
2021/06/20 04:17:46;;;;;;;;;0.00;0.00;;;;;18.42;66.26;100484.50;5037332;28;45596;-92
2021/06/20 04:20:13;;;;;;;;;0.00;0.00;;;;;19.20;65.22;100613.28;5039565;28;45413;-92
2021/06/20 04:22:40;;;;;;;;;0.00;0.00;;;;;18.67;65.32;100536.50;5058236;28;45372;-92
2021/06/20 04:25:06;;;;;;;;;0.00;0.00;;;;;19.09;65.42;100621.50;5060727;28;45340;-91
2021/06/20 04:27:32;;;;;;;;;0.00;0.00;;;;;19.11;65.15;100617.91;5056203;28;45392;-93
2021/06/20 04:29:57;;;;;;;;;0.00;0.00;;;;;18.99;65.30;100605.06;5042640;28;45673;-92
2021/06/20 04:32:23;;;;;;;;;0.00;0.00;;;;;18.82;64.71;100580.03;5041404;28;45360;-92
2021/06/20 04:34:48;;;;;;;;;0.00;0.00;;;;;19.15;65.07;100623.97;5065402;28;45349;-93
2021/06/20 04:37:13;;;;;;;;;0.00;0.00;;;;;18.73;64.44;100553.91;5045951;28;46046;-92
2021/06/20 04:39:39;;;;;;;;;0.00;0.00;;;;;18.80;64.59;100562.53;5058793;28;45332;-92
2021/06/20 04:42:06;;;;;;;;;0.00;0.00;;;;;18.86;64.67;100586.06;5056292;28;45551;-93
2021/06/20 04:44:47;;;;;;;;;0.00;0.00;;;;;18.93;64.48;100602.59;5039156;28;47334;-90
2021/06/20 04:47:18;;;;;;;;;0.00;0.00;;;;;18.86;64.40;100599.25;5059609;28;45281;-93
2021/06/20 04:49:44;;;;;;;;;0.00;0.00;;;;;18.94;64.43;100618.38;5035150;28;45350;-93
2021/06/20 04:52:12;;;;;;;;;0.00;0.00;;;;;18.55;64.86;100539.47;5061476;28;45364;-93
2021/06/20 04:54:49;;;;;;;;;0.00;0.00;;;;;18.61;64.58;100524.38;5058723;28;47333;-91
2021/06/20 04:57:28;;;;;;;;;0.00;0.00;;;;;18.84;64.21;100582.63;5054916;28;45310;-93
2021/06/20 04:59:56;;;;;;;;;1.00;0.00;;;;;18.98;64.34;100579.56;5051010;28;45140;-90
2021/06/20 05:02:22;;;;;;;;;0.00;0.00;;;;;19.12;63.92;100605.59;5045574;28;45521;-92
2021/06/20 05:04:48;;;;;;;;;0.00;0.00;;;;;18.43;64.23;100498.50;5040120;28;47483;-92
2021/06/20 05:07:15;;;;;;;;;0.00;0.00;;;;;18.69;64.21;100578.66;5055572;28;45439;-93
2021/06/20 05:09:41;;;;;;;;;0.00;0.00;;;;;18.72;64.24;100587.31;5065280;28;45371;-93
2021/06/20 05:12:07;;;;;;;;;0.00;0.00;;;;;19.00;64.00;100612.06;5051105;28;45228;-90
2021/06/20 05:14:34;;;;;;;;;0.00;0.00;;;;;18.66;63.92;100545.34;5067822;28;46984;-90
2021/06/20 05:17:00;;;;;;;;;1.00;0.00;;;;;18.95;63.15;100584.94;5046586;28;45391;-89
2021/06/20 05:19:26;;;;;;;;;0.00;0.00;;;;;18.99;63.71;100595.38;5046949;28;44891;-89
2021/06/20 05:21:51;;;;;;;;;0.00;0.00;;;;;19.08;63.91;100610.09;5062811;28;45106;-89
2021/06/20 05:24:17;;;;;;;;;0.00;0.00;;;;;18.85;63.42;100563.25;5072267;28;46023;-90
2021/06/20 05:26:43;;;;;;;;;0.00;0.00;;;;;19.19;63.38;100630.00;5071495;28;45347;-90
2021/06/20 05:29:08;;;;;;;;;0.00;0.00;;;;;19.24;63.27;100628.13;5069567;28;45336;-88
2021/06/20 05:31:34;;;;;;;;;0.00;0.00;;;;;19.34;62.87;100632.22;5069717;28;45451;-90
2021/06/20 05:33:59;;;;;;;;;0.00;0.00;;;;;18.91;62.47;100568.34;5060580;28;45429;-89
2021/06/20 05:36:25;;;;;;;;;0.00;0.00;;;;;19.18;62.50;100589.59;5058006;28;48545;-88
2021/06/20 05:38:50;;;;;;;;;0.00;0.00;;;;;19.47;62.52;100616.00;5042785;28;45436;-90
2021/06/20 05:41:15;;;;;;;;;0.00;0.00;;;;;19.54;62.41;100606.97;5063153;28;45503;-90
2021/06/20 05:43:41;;;;;;;;;0.00;0.00;;;;;19.30;62.12;100580.44;5059721;28;45617;-90
2021/06/20 05:46:06;;;;;;;;;0.00;0.00;;;;;19.57;61.96;100622.72;5060124;28;45442;-91
2021/06/20 05:48:31;;;;;;;;;0.00;0.00;;;;;19.69;62.16;100625.91;5060158;28;45510;-90
2021/06/20 05:50:57;;;;;;;;;0.00;0.00;;;;;19.75;61.71;100623.94;5061782;28;45192;-91
2021/06/20 05:53:23;;;;;;;;;0.00;0.00;;;;;19.53;61.83;100589.41;5067505;28;46121;-90
2021/06/20 05:55:48;;;;;;;;;0.00;0.00;;;;;19.60;61.05;100601.50;5055776;28;45272;-90
2021/06/20 05:58:13;;;;;;;;;0.00;0.00;;;;;19.41;61.54;100574.81;5070993;28;45038;-90
2021/06/20 06:00:39;;;;;;;;;0.00;0.00;;;;;19.59;61.92;100630.59;5060666;28;45216;-91
2021/06/20 06:03:05;;;;;;;;;0.00;0.00;;;;;19.43;62.00;100622.28;5049526;28;46582;-91
2021/06/20 06:05:30;;;;;;;;;0.00;0.00;;;;;19.22;61.96;100601.78;5042530;28;45628;-90
2021/06/20 06:07:56;;;;;;;;;0.00;0.00;;;;;18.94;62.24;100535.75;5059388;28;45495;-91
2021/06/20 06:10:23;;;;;;;;;0.00;0.00;;;;;19.09;62.00;100560.84;5060337;28;45507;-91
2021/06/20 06:12:48;;;;;;;;;0.00;0.00;;;;;19.00;62.22;100556.66;5051539;28;46562;-91
2021/06/20 06:15:14;;;;;;;;;0.00;0.00;;;;;19.59;62.44;100630.59;5062376;28;45365;-92
2021/06/20 06:17:39;;;;;;;;;0.00;0.00;;;;;19.42;62.07;100578.34;5060945;28;45499;-92
2021/06/20 06:20:06;;;;;;;;;0.00;0.00;;;;;19.72;62.02;100602.03;5059246;28;45385;-91
2021/06/20 06:22:31;;;;;;;;;0.00;0.00;;;;;19.85;61.79;100626.28;5050063;28;48104;-92
2021/06/20 06:24:56;;;;;;;;;0.00;0.00;;;;;19.73;61.73;100619.63;5040561;28;45312;-92
2021/06/20 06:27:22;;;;;;;;;0.00;0.00;;;;;19.89;61.40;100641.13;5057431;28;45339;-90
2021/06/20 06:29:47;;;;;;;;;0.00;0.00;;;;;19.95;61.64;100632.13;5056845;28;45469;-90
2021/06/20 06:32:14;;;;;;;;;0.00;0.00;;;;;19.90;61.84;100624.34;5056936;28;46234;-91
2021/06/20 06:34:39;;;;;;;;;0.00;0.00;;;;;19.63;61.38;100595.25;5056094;28;45457;-92
2021/06/20 06:37:05;;;;;;;;;0.00;0.00;;;;;19.25;61.46;100558.59;5055123;28;45331;-92
2021/06/20 06:39:32;;;;;;;;;0.00;0.00;;;;;19.46;61.67;100591.38;5055708;28;45499;-92
2021/06/20 06:41:58;;;;;;;;;0.00;0.00;;;;;19.57;62.05;100613.94;5060527;28;45447;-90
2021/06/20 06:44:25;;;;;;;;;0.00;0.00;;;;;19.69;61.34;100607.44;5056279;28;45429;-90
2021/06/20 06:46:50;;;;;;;;;0.00;0.00;;;;;19.52;61.31;100578.91;5033304;28;45387;-90
2021/06/20 06:49:15;;;;;;;;;0.00;0.00;;;;;19.65;61.46;100616.31;5040231;28;45312;-89
2021/06/20 06:51:41;;;;;;;;;0.00;0.00;;;;;19.71;61.52;100610.88;5049284;28;45743;-88
2021/06/20 06:54:06;;;;;;;;;0.00;0.00;;;;;19.87;61.41;100627.94;5048112;28;45659;-89
2021/06/20 06:56:32;;;;;;;;;0.50;0.50;;;;;19.95;61.24;100619.78;5050901;28;45477;-89
2021/06/20 06:58:58;;;;;;;;;0.00;0.00;;;;;19.81;60.84;100588.53;5040503;28;45609;-92
2021/06/20 07:01:24;;;;;;;;;0.00;0.00;;;;;19.83;60.70;100593.75;5058404;28;45348;-93
2021/06/20 07:03:49;;;;;;;;;0.00;0.00;;;;;20.25;60.65;100654.03;5060545;28;45342;-93
2021/06/20 07:06:14;;;;;;;;;0.00;0.00;;;;;20.19;60.23;100633.13;5062645;28;45296;-86
2021/06/20 07:08:40;;;;;;;;;0.00;0.00;;;;;20.07;60.31;100605.34;5061440;28;45672;-94
2021/06/20 07:11:06;;;;;;;;;0.00;0.00;;;;;20.18;60.08;100631.38;5038224;28;47858;-89
2021/06/20 07:13:31;;;;;;;;;0.00;0.00;;;;;20.13;59.86;100620.13;5050797;28;45461;-90
2021/06/20 07:15:57;;;;;;;;;0.00;0.00;;;;;20.21;59.45;100657.72;5030739;28;46409;-88
2021/06/20 07:18:22;;;;;;;;;0.00;0.00;;;;;20.14;59.54;100642.97;5042721;28;45316;-88
2021/06/20 07:20:49;;;;;;;;;0.00;0.00;;;;;20.21;59.40;100657.72;5043095;28;45947;-87
2021/06/20 07:23:14;;;;;;;;;0.00;0.00;;;;;20.18;59.47;100636.66;5041449;28;45447;-88
2021/06/20 07:25:40;;;;;;;;;0.00;0.00;;;;;19.96;59.50;100584.53;5059625;28;45465;-90
2021/06/20 07:28:06;;;;;;;;;0.00;0.00;;;;;19.99;59.90;100589.72;5046529;28;45513;-89
2021/06/20 07:30:32;;;;;;;;;0.00;0.00;;;;;20.44;59.66;100652.56;5064614;28;45432;-90
2021/06/20 07:32:58;;;;;;;;;0.00;0.00;;;;;20.52;59.43;100655.81;5042657;28;45569;-87
2021/06/20 07:35:24;;;;;;;;;0.00;0.00;;;;;20.57;59.57;100659.16;5056690;28;45491;-81
2021/06/20 07:37:49;;;;;;;;;0.00;0.00;;;;;20.66;59.73;100652.69;5058340;28;45472;-79
2021/06/20 07:40:15;;;;;;;;;1.00;0.00;;;;;20.44;58.92;100636.72;5055331;28;45621;-79
2021/06/20 07:42:41;;;;;;;;;0.00;0.00;;;;;20.44;58.73;100657.84;5039659;28;45840;-80
2021/06/20 07:45:08;;;;;;;;;0.00;0.00;;;;;20.27;58.65;100653.16;5055403;28;45486;-77
2021/06/20 07:47:36;;;;;;;;;0.00;0.00;;;;;20.43;59.14;100650.84;5057674;28;45440;-79
2021/06/20 07:50:04;;;;;;;;;0.00;0.00;;;;;20.56;58.20;100652.16;5058027;28;45340;-81
2021/06/20 07:52:30;;;;;;;;;0.00;0.00;;;;;20.59;59.10;100637.97;5056446;28;45493;-80
2021/06/20 07:54:55;;;;;;;;;0.00;0.00;;;;;20.68;58.02;100644.69;5056795;28;45593;-78
2021/06/20 07:57:21;;;;;;;;;0.00;0.00;;;;;20.61;58.01;100631.69;5056888;28;45518;-78
2021/06/20 07:59:49;;;;;;;;;0.00;0.00;;;;;20.61;58.44;100610.53;5056819;28;46577;-81
2021/06/20 08:02:16;;;;;;;;;0.00;0.00;;;;;20.94;57.25;100637.63;5057209;28;45537;-86
2021/06/20 08:04:41;;;;;;;;;0.00;0.00;;;;;20.91;57.69;100620.09;5040680;28;45525;-81
2021/06/20 08:07:08;;;;;;;;;0.00;0.00;;;;;21.16;57.38;100635.06;5056661;28;48149;-82
2021/06/20 08:09:33;;;;;;;;;0.00;0.00;;;;;21.03;56.77;100608.19;5057033;28;45406;-84
2021/06/20 08:11:59;;;;;;;;;0.00;0.00;;;;;20.91;57.55;100569.81;5039415;28;45328;-79
2021/06/20 08:14:25;;;;;;;;;0.00;0.00;;;;;21.23;56.72;100604.78;5055473;28;45511;-79
2021/06/20 08:16:50;;;;;;;;;0.00;0.00;;;;;21.49;56.59;100633.81;5058207;28;45710;-84
2021/06/20 08:19:16;;;;;;;;;0.00;0.00;;;;;21.34;56.33;100580.56;5055772;28;45498;-82
2021/06/20 08:21:43;;;;;;;;;0.00;0.00;;;;;21.45;56.03;100593.38;5055306;28;45916;-81
2021/06/20 08:24:09;;;;;;;;;0.00;0.00;;;;;21.47;55.91;100596.81;5056779;28;45403;-84
2021/06/20 08:26:34;;;;;;;;;0.00;0.00;;;;;21.75;55.16;100634.63;5058313;28;45480;-90
2021/06/20 08:29:00;;;;;;;;;0.00;0.00;;;;;21.83;55.67;100623.69;5058344;28;48362;-83
2021/06/20 08:31:25;;;;;;;;;0.00;0.00;;;;;21.74;55.36;100599.28;5036168;28;45366;-85
2021/06/20 08:33:50;;;;;;;;;0.00;0.00;;;;;21.55;54.48;100575.31;5040497;28;45921;-85
2021/06/20 08:36:16;;;;;;;;;0.75;0.75;;;;;21.70;55.29;100576.50;5036816;28;45458;-85
2021/06/20 08:38:42;;;;;;;;;0.00;0.00;;;;;21.95;55.27;100615.25;5056033;28;45291;-84
2021/06/20 08:41:12;;;;;;;;;1.00;0.00;;;;;21.90;55.04;100612.78;5057522;28;45525;-79
2021/06/20 08:43:37;;;;;;;;;0.00;0.00;;;;;21.73;54.56;100576.38;5056766;28;45484;-87
2021/06/20 08:46:03;;;;;;;;;0.00;0.00;;;;;21.84;54.75;100614.84;5056885;28;45501;-82
2021/06/20 08:48:28;;;;;;;;;0.00;0.00;;;;;21.62;53.65;100595.34;5055270;28;46785;-82
2021/06/20 08:50:54;;;;;;;;;0.00;0.00;;;;;21.37;54.44;100606.03;5058117;28;45406;-87
2021/06/20 08:53:20;;;;;;;;;0.00;0.00;;;;;21.48;54.34;100603.84;5064783;28;45478;-86
2021/06/20 08:55:47;;;;;;;;;0.00;0.00;;;;;21.85;54.34;100640.41;5059133;28;45392;-87
2021/06/20 08:58:23;;;;;;;;;0.00;0.00;;;;;21.98;54.30;100628.38;5057845;28;46440;-80
2021/06/20 09:00:49;;;;;;;;;0.00;0.00;;;;;22.11;53.42;100628.72;5053726;28;45549;-78
2021/06/20 09:03:15;;;;;;;;;0.00;0.00;;;;;22.14;53.83;100628.59;5053684;28;45420;-76
2021/06/20 09:05:54;;;;;;;;;0.00;0.00;;;;;22.12;53.35;100608.41;5054075;28;45506;-78
2021/06/20 09:08:24;;;;;;;;;0.00;0.00;;;;;;;;5055218;28;45954;-82
2021/06/20 09:10:49;;;;;;;;;0.00;0.00;;;;;22.36;52.55;100609.13;5054802;28;45561;-79
2021/06/20 09:13:16;;;;;;;;;0.00;0.00;;;;;22.33;52.29;100595.16;5053434;28;45450;-79
2021/06/20 09:15:41;;;;;;;;;0.00;0.00;;;;;22.34;51.73;100575.66;5053955;28;45541;-79
2021/06/20 09:18:10;;;;;;;;;0.00;0.00;;;;;22.32;51.16;100573.06;5052912;28;46769;-79
2021/06/20 09:20:38;;;;;;;;;0.00;0.00;;;;;22.19;51.96;100577.19;5055283;28;45503;-84
2021/06/20 09:23:12;;;;;;;;;0.00;0.00;;;;;21.98;52.35;100555.97;5057443;28;45501;-84
2021/06/20 09:25:40;;;;;;;;;0.00;0.00;;;;;22.09;51.88;100550.22;5058522;28;45541;-91
2021/06/20 09:28:08;;;;;;;;;0.00;0.00;;;;;22.23;52.30;100565.50;5036332;28;47683;-87
2021/06/20 09:30:35;;;;;;;;;0.00;0.00;;;;;22.27;51.14;100556.53;5039390;28;45392;-93
2021/06/20 09:33:05;;;;;;;;;0.00;0.00;;;;;22.20;50.64;100533.84;5054780;28;45396;-84
2021/06/20 09:35:45;;;;;;;;;0.00;0.00;;;;;22.41;50.97;100532.03;5047451;28;45551;-83
2021/06/20 09:38:40;;;;;;;;;0.00;0.00;;;;;22.39;50.97;100536.56;5052863;28;45453;-82
2021/06/20 09:41:08;;;;;;;;;0.00;0.00;;;;;22.46;50.60;100539.78;5051341;28;45546;-83
2021/06/20 09:43:35;;;;;;;;;0.00;0.00;;;;;22.35;49.89;100509.31;5056126;28;45491;-84
2021/06/20 09:46:01;;;;;;;;;0.00;0.00;;;;;22.42;50.03;100509.91;5053615;28;45593;-82
2021/06/20 09:48:31;;;;;;;;;0.00;0.00;;;;;22.81;50.15;100552.44;5056051;28;46088;-79
2021/06/20 09:50:59;;;;;;;;;0.00;0.00;;;;;22.87;50.38;100550.34;5037809;28;45722;-79
2021/06/20 09:53:38;;;;;;;;;0.00;0.00;;;;;22.92;50.51;100544.81;5054473;28;45568;-79
2021/06/20 09:56:13;;;;;;;;;0.00;0.00;;;;;23.13;50.23;100558.03;5052525;28;45452;-79
2021/06/20 09:58:42;;;;;;;;;0.00;0.00;;;;;22.96;49.93;100529.59;5056289;28;46480;-79
2021/06/20 10:01:10;;;;;;;;;0.00;0.00;;;;;22.97;49.35;100544.63;5037160;28;45360;-78
2021/06/20 10:03:36;;;;;;;;;0.00;0.00;;;;;22.59;50.79;100519.78;5052978;28;45590;-79
2021/06/20 10:06:01;;;;;;;;;0.00;0.00;;;;;22.73;50.54;100539.50;5052259;28;45605;-79
2021/06/20 10:08:27;;;;;;;;;0.00;0.00;;;;;22.78;50.83;100542.78;5035117;28;47972;-78
2021/06/20 10:10:52;;;;;;;;;0.00;0.00;;;;;22.87;50.23;100533.53;5055787;28;45368;-77
2021/06/20 10:13:17;;;;;;;;;0.00;0.00;;;;;23.11;49.26;100549.25;5052975;28;45370;-80
2021/06/20 10:15:43;;;;;;;;;0.00;0.00;;;;;23.12;49.44;100551.00;5052801;28;45449;-79
2021/06/20 10:18:10;;;;;;;;;0.00;0.00;;;;;23.24;49.21;100558.34;5052880;28;45608;-80
2021/06/20 10:20:36;;;;;;;;;0.00;0.00;;;;;23.33;49.28;100533.16;5052571;28;45368;-80
2021/06/20 10:23:03;;;;;;;;;0.00;0.00;;;;;23.34;48.38;100520.75;5056035;28;45387;-79
2021/06/20 10:25:37;;;;;;;;;0.00;0.00;;;;;23.46;48.30;100522.81;5054397;28;46039;-79
2021/06/20 10:28:10;;;;;;;;;0.00;0.00;;;;;23.35;48.17;100501.22;5053503;28;46413;-80
2021/06/20 10:30:36;;;;;;;;;0.00;0.00;;;;;23.50;47.76;100516.44;5050703;28;45595;-78
2021/06/20 10:33:12;;;;;;;;;0.00;0.00;;;;;23.53;47.68;100503.00;5052686;28;45364;-79
2021/06/20 10:35:40;;;;;;;;;0.00;0.00;;;;;23.58;47.96;100480.66;5026990;28;45463;-78
2021/06/20 10:38:06;;;;;;;;;0.00;0.00;;;;;23.67;47.97;100499.66;5053231;28;47073;-76
2021/06/20 10:40:41;;;;;;;;;0.00;0.00;;;;;23.54;47.41;100464.00;5047223;28;45487;-76
2021/06/20 10:43:18;;;;;;;;;0.00;0.00;;;;;23.73;47.68;100495.81;5051361;28;45768;-80
2021/06/20 10:45:44;;;;;;;;;0.00;0.00;;;;;23.69;46.69;100488.94;5048061;28;45581;-79
2021/06/20 10:48:19;;;;;;;;;0.00;0.00;;;;;23.82;46.85;100467.91;5044448;28;45590;-83
2021/06/20 10:50:48;;;;;;;;;0.00;0.00;;;;;23.91;46.72;100427.56;5045032;28;45422;-79
2021/06/20 10:53:14;;;;;;;;;0.00;0.00;;;;;24.23;46.54;100437.47;5046601;28;47532;-78
2021/06/20 10:56:04;;;;;;;;;0.00;0.00;;;;;24.35;45.66;100419.13;5050479;28;45387;-78
2021/06/20 10:58:34;;;;;;;;;0.00;0.00;;;;;24.33;45.55;100389.97;5048774;28;45399;-79
2021/06/20 11:01:07;;;;;;;;;0.00;0.00;;;;;24.60;45.36;100407.13;5053698;28;45479;-78
2021/06/20 11:03:33;;;;;;;;;0.00;0.00;;;;;24.54;45.18;100384.38;5048861;28;45619;-82
2021/06/20 11:06:11;;;;;;;;;0.00;0.00;;;;;24.84;45.25;100399.56;5052242;28;45497;-76
2021/06/20 11:08:57;;;;;;;;;0.25;0.00;;;;;24.94;45.18;100410.56;5046439;28;45941;-77
2021/06/20 11:11:32;;;;;;;;;0.00;0.00;;;;;25.01;45.20;100417.25;5052126;28;45386;-77
2021/06/20 11:13:57;;;;;;;;;0.00;0.00;;;;;25.00;44.58;100406.69;5049802;28;45483;-78
2021/06/20 11:16:26;;;;;;;;;0.00;0.00;;;;;25.01;45.04;100403.94;5053877;28;45453;-77
2021/06/20 11:19:12;;;;;;;;;1.00;0.00;;;;;25.01;44.38;100381.78;5051020;28;46567;-79
2021/06/20 11:21:43;;;;;;;;;0.00;0.00;;;;;24.89;44.28;100378.03;5051101;28;45499;-76
2021/06/20 11:24:11;;;;;;;;;0.00;0.00;;;;;24.76;44.06;100346.78;5046579;28;45575;-82
2021/06/20 11:26:37;;;;;;;;;0.00;0.00;;;;;25.04;43.28;100358.50;5044518;28;48087;-78